createdAt,value
2023-03-17T00:00:44.867Z,101374.25
2023-03-17T00:03:25.541Z,101376.55
2023-03-17T00:05:56.699Z,101377.27
2023-03-17T00:08:29.278Z,101380.38
2023-03-17T00:10:58.490Z,101381.89
2023-03-17T00:13:28.310Z,101386.83
2023-03-17T00:16:01.750Z,101383.30
2023-03-17T00:18:32.893Z,101378.11
2023-03-17T00:21:01.791Z,101390.09
2023-03-17T00:23:31.199Z,101367.70
2023-03-17T00:26:00.111Z,101366.73
2023-03-17T00:28:30.096Z,101367.63
2023-03-17T00:31:01.191Z,101360.75
2023-03-17T00:33:36.221Z,101362.41
2023-03-17T00:36:10.807Z,101363.20
2023-03-17T00:38:39.605Z,101370.08
2023-03-17T00:41:10.428Z,101363.20
2023-03-17T00:43:40.264Z,101358.98
2023-03-17T00:46:14.764Z,101354.74
2023-03-17T00:48:45.074Z,101347.72
2023-03-17T00:51:15.148Z,101345.78
2023-03-17T00:53:45.880Z,101353.27
2023-03-17T00:56:17.416Z,101353.19
2023-03-17T00:58:47.440Z,101350.56
2023-03-17T01:01:20.381Z,101342.79
2023-03-17T01:03:49.578Z,101344.38
2023-03-17T01:06:18.552Z,101344.22
2023-03-17T01:08:48.849Z,101338.03
2023-03-17T01:11:20.279Z,101339.72
2023-03-17T01:13:50.368Z,101332.77
2023-03-17T01:16:20.163Z,101329.25
2023-03-17T01:18:49.386Z,101328.27
2023-03-17T01:21:18.286Z,101326.44
2023-03-17T01:23:48.728Z,101323.77
2023-03-17T01:26:18.613Z,101319.56
2023-03-17T01:28:47.864Z,101317.80
2023-03-17T01:31:17.657Z,101315.17
2023-03-17T01:33:46.775Z,101319.30
2023-03-17T01:36:15.537Z,101323.52
2023-03-17T01:38:48.120Z,101319.13
2023-03-17T01:41:18.555Z,101320.63
2023-03-17T01:43:47.668Z,101328.22
2023-03-17T01:46:21.887Z,101330.66
2023-03-17T01:49:06.632Z,101334.91
2023-03-17T01:51:40.365Z,101328.83
2023-03-17T01:54:13.640Z,101335.52
2023-03-17T01:56:46.807Z,101333.86
2023-03-17T01:59:23.514Z,101326.98
2023-03-17T02:01:58.070Z,101328.56
2023-03-17T02:04:27.253Z,101330.22
2023-03-17T02:06:59.451Z,101331.05
2023-03-17T02:09:29.320Z,101329.28
2023-03-17T02:12:01.146Z,101332.70
2023-03-17T02:14:30.787Z,101336.15
2023-03-17T02:17:00.213Z,101335.25
2023-03-17T02:19:30.881Z,101343.97
2023-03-17T02:22:02.741Z,101337.02
2023-03-17T02:24:36.653Z,101341.94
2023-03-17T02:27:12.402Z,101338.59
2023-03-17T02:29:45.682Z,101337.73
2023-03-17T02:32:18.184Z,101344.41
2023-03-17T02:34:48.899Z,101342.47
2023-03-17T02:37:19.576Z,101344.05
2023-03-17T02:39:48.480Z,101346.44
2023-03-17T02:42:17.864Z,101339.46
2023-03-17T02:44:46.693Z,101331.72
2023-03-17T02:47:16.744Z,101337.54
2023-03-17T02:49:46.027Z,101337.54
2023-03-17T02:52:14.990Z,101343.36
2023-03-17T02:54:44.882Z,101344.15
2023-03-17T02:57:13.876Z,101354.36
2023-03-17T02:59:42.680Z,101354.36
2023-03-17T03:02:11.964Z,101360.14
2023-03-17T03:04:41.325Z,101355.75
2023-03-17T03:07:11.086Z,101370.80
2023-03-17T03:09:41.467Z,101375.03
2023-03-17T03:12:13.336Z,101372.29
2023-03-17T03:14:42.440Z,101378.97
2023-03-17T03:17:11.738Z,101374.38
2023-03-17T03:19:40.926Z,101376.06
2023-03-17T03:22:11.254Z,101374.97
2023-03-17T03:24:40.248Z,101384.31
2023-03-17T03:27:09.688Z,101380.86
2023-03-17T03:29:38.764Z,101380.59
2023-03-17T03:32:08.776Z,101383.77
2023-03-17T03:34:37.658Z,101387.97
2023-03-17T03:37:07.840Z,101384.55
2023-03-17T03:39:37.621Z,101389.53
2023-03-17T03:42:09.461Z,101387.80
2023-03-17T03:44:38.653Z,101391.14
2023-03-17T03:47:09.852Z,101384.27
2023-03-17T03:49:38.790Z,101386.70
2023-03-17T03:52:09.971Z,101384.16
2023-03-17T03:54:38.757Z,101386.82
2023-03-17T03:57:09.094Z,101382.50
2023-03-17T03:59:38.208Z,101382.50
2023-03-17T04:02:09.716Z,101376.70
2023-03-17T04:04:39.926Z,101372.49
2023-03-17T04:07:09.401Z,101367.28
2023-03-17T04:09:38.704Z,101365.52
2023-03-17T04:12:11.140Z,101369.75
2023-03-17T04:14:40.689Z,101367.39
2023-03-17T04:17:10.484Z,101366.49
2023-03-17T04:19:40.261Z,101361.39
2023-03-17T04:22:13.157Z,101375.83
2023-03-17T04:24:42.131Z,101374.06
2023-03-17T04:27:11.720Z,101379.25
2023-03-17T04:29:42.084Z,101385.25
2023-03-17T04:32:14.266Z,101381.02
2023-03-17T04:34:43.589Z,101379.33
2023-03-17T04:37:12.639Z,101377.68
2023-03-17T04:39:42.708Z,101387.18
2023-03-17T04:42:12.081Z,101380.42
2023-03-17T04:44:42.671Z,101385.61
2023-03-17T04:47:23.342Z,101389.03
2023-03-17T04:49:53.528Z,101384.03
2023-03-17T04:52:25.745Z,101392.67
2023-03-17T04:54:55.768Z,101375.67
2023-03-17T04:57:29.382Z,101369.86
2023-03-17T05:00:09.373Z,101375.95
2023-03-17T05:02:40.014Z,101371.83
2023-03-17T05:05:10.375Z,101374.57
2023-03-17T05:07:44.930Z,101378.18
2023-03-17T05:10:19.477Z,101381.87
2023-03-17T05:12:51.239Z,101381.27
2023-03-17T05:15:21.480Z,101394.42
2023-03-17T05:17:51.344Z,101403.14
2023-03-17T05:20:21.146Z,101404.38
2023-03-17T05:22:55.427Z,101409.76
2023-03-17T05:25:25.863Z,101420.24
2023-03-17T05:27:59.354Z,101414.50
2023-03-17T05:30:32.220Z,101419.20
2023-03-17T05:33:03.968Z,101407.67
2023-03-17T05:35:34.529Z,101415.67
2023-03-17T05:38:04.371Z,101414.36
2023-03-17T05:40:35.025Z,101412.96
2023-03-17T05:43:06.990Z,101414.16
2023-03-17T05:45:36.366Z,101415.40
2023-03-17T05:48:07.044Z,101428.62
2023-03-17T05:50:36.014Z,101436.73
2023-03-17T05:53:06.689Z,101433.10
2023-03-17T05:55:35.428Z,101426.91
2023-03-17T05:58:07.287Z,101425.75
2023-03-17T06:00:37.253Z,101442.64
2023-03-17T06:03:07.774Z,101440.94
2023-03-17T06:05:36.981Z,101440.95
2023-03-17T06:08:07.042Z,101442.08
2023-03-17T06:10:36.337Z,101425.04
2023-03-17T06:13:06.411Z,101418.95
2023-03-17T06:15:36.501Z,101409.63
2023-03-17T06:18:07.033Z,101409.15
2023-03-17T06:20:36.752Z,101407.00
2023-03-17T06:23:07.034Z,101409.33
2023-03-17T06:25:36.509Z,101409.25
2023-03-17T06:28:06.938Z,101411.22
2023-03-17T06:30:40.402Z,101404.71
2023-03-17T06:33:09.664Z,101404.14
2023-03-17T06:35:38.592Z,101406.34
2023-03-17T06:38:08.335Z,101404.35
2023-03-17T06:40:37.637Z,101409.11
2023-03-17T06:43:07.499Z,101411.28
2023-03-17T06:45:36.985Z,101414.30
2023-03-17T06:48:09.168Z,101411.38
2023-03-17T06:50:38.208Z,101411.78
2023-03-17T06:53:07.965Z,101413.28
2023-03-17T06:55:39.416Z,101418.14
2023-03-17T06:58:10.102Z,101405.11
2023-03-17T07:00:39.404Z,101406.00
2023-03-17T07:03:10.828Z,101416.19
2023-03-17T07:05:39.780Z,101413.89
2023-03-17T07:08:11.042Z,101410.51
2023-03-17T07:10:43.151Z,101408.80
2023-03-17T07:13:15.246Z,101404.52
2023-03-17T07:15:46.521Z,101407.09
2023-03-17T07:18:16.590Z,101406.56
2023-03-17T07:20:47.874Z,101400.23
2023-03-17T07:23:23.165Z,101396.20
2023-03-17T07:25:52.475Z,101404.41
2023-03-17T07:28:22.296Z,101398.86
2023-03-17T07:30:52.045Z,101403.25
2023-03-17T07:33:24.412Z,101400.80
2023-03-17T07:35:58.495Z,101396.91
2023-03-17T07:38:30.759Z,101385.70
2023-03-17T07:41:03.973Z,101384.20
2023-03-17T07:43:34.724Z,101382.40
2023-03-17T07:46:17.509Z,101378.98
2023-03-17T07:48:50.710Z,101381.80
2023-03-17T07:51:44.627Z,101374.43
2023-03-17T07:54:15.066Z,101388.45
2023-03-17T07:56:51.873Z,101380.39
2023-03-17T07:59:22.446Z,101365.47
2023-03-17T08:02:02.078Z,101369.64
2023-03-17T08:04:38.140Z,101361.66
2023-03-17T08:07:14.765Z,101360.77
2023-03-17T08:09:43.796Z,101362.82
2023-03-17T08:12:14.098Z,101365.02
2023-03-17T08:14:43.352Z,101361.27
2023-03-17T08:17:13.250Z,101364.29
2023-03-17T08:19:43.225Z,101364.94
2023-03-17T08:22:15.631Z,101368.43
2023-03-17T08:24:46.690Z,101361.78
2023-03-17T08:27:18.730Z,101359.55
2023-03-17T08:29:49.658Z,101355.77
2023-03-17T08:32:24.751Z,101358.74
2023-03-17T08:34:55.718Z,101365.28
2023-03-17T08:37:25.464Z,101368.91
2023-03-17T08:39:54.943Z,101382.83
2023-03-17T08:42:26.967Z,101383.59
2023-03-17T08:44:57.827Z,101387.69
2023-03-17T08:50:20.020Z,101397.67
2023-03-17T08:52:57.541Z,101402.38
2023-03-17T08:55:29.570Z,101395.53
2023-03-17T08:57:58.964Z,101408.61
2023-03-17T09:00:31.413Z,101402.45
2023-03-17T09:03:07.657Z,101411.85
2023-03-17T09:05:38.437Z,101416.09
2023-03-17T09:08:16.910Z,101418.72
2023-03-17T09:10:51.912Z,101409.15
2023-03-17T09:13:28.224Z,101411.15
2023-03-17T09:15:57.570Z,101406.61
2023-03-17T09:18:31.445Z,101405.69
2023-03-17T09:23:53.040Z,101410.05
2023-03-17T09:26:26.425Z,101391.39
2023-03-17T09:28:58.055Z,101388.88
2023-03-17T09:31:27.235Z,101382.89
2023-03-17T09:33:56.362Z,101375.02
2023-03-17T09:36:27.493Z,101378.83
2023-03-17T09:39:00.900Z,101374.04
2023-03-17T09:41:58.561Z,101373.36
2023-03-17T09:44:51.913Z,101357.86
2023-03-17T09:47:43.089Z,101356.52
2023-03-17T09:50:16.716Z,101360.56
2023-03-17T09:52:46.594Z,101351.52
2023-03-17T09:55:26.457Z,101357.30
2023-03-17T09:57:57.153Z,101361.42
2023-03-17T10:00:30.873Z,101350.51
2023-03-17T10:03:00.993Z,101345.55
2023-03-17T10:05:32.378Z,101336.97
2023-03-17T10:08:26.924Z,101344.17
2023-03-17T10:11:11.165Z,101339.88
2023-03-17T10:13:54.294Z,101332.83
2023-03-17T10:16:30.965Z,101327.57
2023-03-17T10:19:04.960Z,101321.47
2023-03-17T10:21:43.661Z,101330.27
2023-03-17T10:24:13.151Z,101327.84
2023-03-17T10:26:46.773Z,101324.42
2023-03-17T10:29:18.098Z,101332.27
2023-03-17T10:31:47.262Z,101323.62
2023-03-17T10:34:19.539Z,101320.30
2023-03-17T10:36:54.809Z,101322.97
2023-03-17T10:39:24.988Z,101317.79
2023-03-17T10:42:01.263Z,101311.73
2023-03-17T10:44:39.953Z,101303.91
2023-03-17T10:47:24.684Z,101310.06
2023-03-17T10:49:55.501Z,101311.01
2023-03-17T10:52:27.865Z,101305.78
2023-03-17T10:55:05.028Z,101307.57
2023-03-17T10:57:38.360Z,101311.92
2023-03-17T11:00:19.329Z,101312.80
2023-03-17T11:02:56.652Z,101316.28
2023-03-17T11:05:28.485Z,101310.20
2023-03-17T11:08:10.659Z,101318.02
2023-03-17T11:10:41.620Z,101317.17
2023-03-17T11:13:15.754Z,101307.58
2023-03-17T11:15:46.182Z,101298.89
2023-03-17T11:18:19.888Z,101303.25
2023-03-17T11:20:54.209Z,101301.50
2023-03-17T11:23:50.618Z,101296.27
2023-03-17T11:27:08.269Z,101289.30
2023-03-17T11:29:50.410Z,101280.57
2023-03-17T11:32:36.923Z,101271.02
2023-03-17T11:35:33.272Z,101271.88
2023-03-17T11:38:25.313Z,101267.53
2023-03-17T11:41:33.004Z,101255.34
2023-03-17T11:44:23.554Z,101253.59
2023-03-17T11:47:02.222Z,101260.59
2023-03-17T11:49:37.002Z,101256.26
2023-03-17T11:52:23.674Z,101245.81
2023-03-17T11:54:58.921Z,101244.06
2023-03-17T11:57:35.376Z,101229.27
2023-03-17T12:00:16.046Z,101235.38
2023-03-17T12:02:50.475Z,101237.98
2023-03-17T12:05:23.352Z,101226.69
2023-03-17T12:07:56.749Z,101229.30
2023-03-17T12:10:33.499Z,101226.68
2023-03-17T12:13:07.993Z,101221.45
2023-03-17T12:15:43.643Z,101217.98
2023-03-17T12:18:18.028Z,101217.08
2023-03-17T12:21:05.312Z,101226.63
2023-03-17T12:23:47.515Z,101225.75
2023-03-17T12:26:20.092Z,101218.78
2023-03-17T12:28:56.240Z,101222.27
2023-03-17T12:31:29.489Z,101217.04
2023-03-17T12:34:07.431Z,101219.64
2023-03-17T12:36:38.297Z,101213.58
2023-03-17T12:39:13.946Z,101216.18
2023-03-17T12:42:15.761Z,101217.05
2023-03-17T12:45:04.230Z,101212.67
2023-03-17T12:47:55.565Z,101204.84
2023-03-17T12:50:45.091Z,101210.92
2023-03-17T12:53:50.461Z,101204.82
2023-03-17T12:56:24.152Z,101211.78
2023-03-17T12:58:58.259Z,101197.00
2023-03-17T13:01:31.419Z,101195.25
2023-03-17T13:04:18.032Z,101197.84
2023-03-17T13:06:54.535Z,101188.26
2023-03-17T13:09:44.669Z,101200.42
2023-03-17T13:13:09.416Z,101193.47
2023-03-17T13:15:59.993Z,101196.95
2023-03-17T13:18:49.327Z,101189.98
2023-03-17T13:21:26.629Z,101190.84
2023-03-17T13:24:21.326Z,101194.31
2023-03-17T13:27:00.379Z,101187.33
2023-03-17T13:29:47.139Z,101179.52
2023-03-17T13:32:35.121Z,101172.56
2023-03-17T13:35:22.246Z,101172.58
2023-03-17T13:38:20.196Z,101166.47
2023-03-17T13:41:06.648Z,101163.00
2023-03-17T13:44:02.825Z,101166.48
2023-03-17T13:46:41.520Z,101164.77
2023-03-17T13:49:24.060Z,101153.52
2023-03-17T13:52:00.353Z,101152.66
2023-03-17T13:54:40.526Z,101146.59
2023-03-17T13:57:31.337Z,101148.31
2023-03-17T14:00:17.173Z,101147.47
2023-03-17T14:02:48.419Z,101141.41
2023-03-17T14:05:24.383Z,101145.76
2023-03-17T14:08:01.407Z,101137.07
2023-03-17T14:10:33.553Z,101141.39
2023-03-17T14:13:20.654Z,101137.02
2023-03-17T14:15:56.836Z,101117.03
2023-03-17T14:18:37.198Z,101114.43
2023-03-17T14:21:19.933Z,101118.75
2023-03-17T14:23:54.588Z,101123.08
2023-03-17T14:26:27.907Z,101117.87
2023-03-17T14:29:00.580Z,101124.81
2023-03-17T14:31:30.628Z,101120.45
2023-03-17T14:34:01.469Z,101117.81
2023-03-17T14:36:34.123Z,101116.91
2023-03-17T14:39:03.034Z,101113.44
2023-03-17T14:41:34.771Z,101089.98
2023-03-17T14:44:03.668Z,101083.05
2023-03-17T14:46:36.565Z,101083.05
2023-03-17T14:49:17.831Z,101089.98
2023-03-17T14:51:56.664Z,101101.25
2023-03-17T14:54:28.797Z,101115.95
2023-03-17T14:57:02.965Z,101116.78
2023-03-17T14:59:36.349Z,101112.47
2023-03-17T15:02:21.666Z,101111.58
2023-03-17T15:04:53.478Z,101113.30
2023-03-17T15:07:36.967Z,101108.94
2023-03-17T15:10:15.266Z,101104.55
2023-03-17T15:12:46.462Z,101098.44
2023-03-17T15:15:25.236Z,101081.92
2023-03-17T15:18:04.027Z,101074.09
2023-03-17T15:20:37.648Z,101074.92
2023-03-17T15:23:17.768Z,101076.64
2023-03-17T15:25:50.960Z,101072.29
2023-03-17T15:28:22.724Z,101068.78
2023-03-17T15:30:56.894Z,101066.18
2023-03-17T15:33:34.825Z,101066.18
2023-03-17T15:36:04.663Z,101079.19
2023-03-17T15:38:38.511Z,101077.41
2023-03-17T15:41:08.598Z,101079.09
2023-03-17T15:43:37.995Z,101072.13
2023-03-17T15:46:22.122Z,101084.24
2023-03-17T15:48:53.047Z,101091.13
2023-03-17T15:51:22.980Z,101089.34
2023-03-17T15:53:55.367Z,101084.97
2023-03-17T15:56:25.468Z,101087.50
2023-03-17T15:58:55.418Z,101084.83
2023-03-17T16:01:29.178Z,101087.39
2023-03-17T16:03:58.874Z,101094.25
2023-03-17T16:06:28.163Z,101097.66
2023-03-17T16:09:01.283Z,101103.67
2023-03-17T16:11:31.622Z,101097.53
2023-03-17T16:14:04.474Z,101099.19
2023-03-17T16:16:39.644Z,101095.66
2023-03-17T16:19:17.166Z,101090.38
2023-03-17T16:21:46.530Z,101087.72
2023-03-17T16:24:19.861Z,101078.99
2023-03-17T16:26:56.607Z,101085.83
2023-03-17T16:29:25.625Z,101090.07
2023-03-17T16:31:57.774Z,101086.48
2023-03-17T16:34:27.344Z,101088.98
2023-03-17T16:36:58.011Z,101082.83
2023-03-17T16:39:27.007Z,101082.72
2023-03-17T16:42:01.061Z,101088.69
2023-03-17T16:44:31.465Z,101085.14
2023-03-17T16:47:01.838Z,101081.57
2023-03-17T16:49:32.981Z,101083.19
2023-03-17T16:52:04.603Z,101089.10
2023-03-17T16:54:35.893Z,101100.20
2023-03-17T16:57:07.726Z,101093.14
2023-03-17T16:59:37.283Z,101090.41
2023-03-17T17:02:16.222Z,101094.56
2023-03-17T17:04:45.410Z,101097.91
2023-03-17T17:07:14.271Z,101097.77
2023-03-17T17:09:43.509Z,101105.42
2023-03-17T17:12:12.457Z,101102.72
2023-03-17T17:14:41.404Z,101105.17
2023-03-17T17:17:11.157Z,101105.88
2023-03-17T17:19:39.974Z,101097.17
2023-03-17T17:22:11.952Z,101090.11
2023-03-17T17:24:40.800Z,101083.99
2023-03-17T17:27:10.076Z,101083.02
2023-03-17T17:29:39.003Z,101078.59
2023-03-17T17:32:10.410Z,101086.27
2023-03-17T17:34:39.310Z,101094.84
2023-03-17T17:37:11.136Z,101102.52
2023-03-17T17:39:40.046Z,101105.03
2023-03-17T17:42:12.198Z,101095.45
2023-03-17T17:44:42.394Z,101099.67
2023-03-17T17:47:17.053Z,101103.91
2023-03-17T17:49:46.324Z,101108.97
2023-03-17T17:52:15.430Z,101106.34
2023-03-17T17:54:44.333Z,101105.34
2023-03-17T17:57:14.344Z,101108.73
2023-03-17T17:59:43.906Z,101101.72
2023-03-17T18:02:13.900Z,101102.50
2023-03-17T18:04:45.448Z,101105.03
2023-03-17T18:07:15.954Z,101104.13
2023-03-17T18:09:44.888Z,101104.05
2023-03-17T18:12:14.381Z,101104.02
2023-03-17T18:14:43.495Z,101103.97
2023-03-17T18:17:12.624Z,101104.78
2023-03-17T18:19:41.841Z,101109.93
2023-03-17T18:22:11.562Z,101106.45
2023-03-17T18:24:40.643Z,101115.05
2023-03-17T18:27:13.026Z,101108.10
2023-03-17T18:29:46.848Z,101102.02
2023-03-17T18:32:17.266Z,101108.84
2023-03-17T18:34:52.761Z,101107.92
2023-03-17T18:37:25.115Z,101104.48
2023-03-17T18:40:12.004Z,101097.48
2023-03-17T18:42:46.223Z,101103.45
2023-03-17T18:45:15.406Z,101112.05
2023-03-17T18:47:46.504Z,101106.85
2023-03-17T18:50:17.006Z,101109.36
2023-03-17T18:52:48.081Z,101105.00
2023-03-17T18:55:27.936Z,101102.31
2023-03-17T18:57:57.530Z,101111.73
2023-03-17T19:00:26.677Z,101107.34
2023-03-17T19:02:55.572Z,101114.20
2023-03-17T19:05:25.495Z,101115.88
2023-03-17T19:07:54.578Z,101110.62
2023-03-17T19:10:24.128Z,101114.87
2023-03-17T19:12:53.753Z,101112.23
2023-03-17T19:15:23.984Z,101109.59
2023-03-17T19:17:54.308Z,101100.04
2023-03-17T19:20:23.706Z,101098.29
2023-03-17T19:22:53.249Z,101099.95
2023-03-17T19:25:22.349Z,101100.78
2023-03-17T19:27:51.379Z,101103.34
2023-03-17T19:30:20.545Z,101097.26
2023-03-17T19:32:49.549Z,101093.76
2023-03-17T19:35:18.877Z,101097.17
2023-03-17T19:37:47.757Z,101085.92
2023-03-17T19:40:17.362Z,101085.90
2023-03-17T19:42:46.265Z,101085.01
2023-03-17T19:45:16.299Z,101082.40
2023-03-17T19:47:46.462Z,101092.73
2023-03-17T19:50:16.532Z,101089.23
2023-03-17T19:52:45.576Z,101092.64
2023-03-17T19:55:14.704Z,101089.14
2023-03-17T19:57:46.258Z,101088.28
2023-03-17T20:00:17.757Z,101087.36
2023-03-17T20:02:47.222Z,101090.78
2023-03-17T20:05:17.363Z,101084.69
2023-03-17T20:07:49.932Z,101091.55
2023-03-17T20:10:19.933Z,101092.33
2023-03-17T20:12:49.351Z,101085.41
2023-03-17T20:15:21.378Z,101089.62
2023-03-17T20:17:55.125Z,101085.27
2023-03-17T20:20:25.165Z,101087.73
2023-03-17T20:22:57.911Z,101087.70
2023-03-17T20:25:33.954Z,101095.36
2023-03-17T20:28:05.090Z,101089.27
2023-03-17T20:30:39.099Z,101079.69
2023-03-17T20:33:17.836Z,101080.48
2023-03-17T20:35:49.505Z,101083.04
2023-03-17T20:38:23.257Z,101077.81
2023-03-17T20:41:08.994Z,101074.28
2023-03-17T20:43:43.996Z,101078.59
2023-03-17T20:46:28.042Z,101078.59
2023-03-17T20:49:01.513Z,101075.95
2023-03-17T20:51:35.417Z,101074.25
2023-03-17T20:54:08.699Z,101080.28
2023-03-17T20:56:40.854Z,101075.09
2023-03-17T20:59:22.900Z,101071.58
2023-03-17T21:01:59.047Z,101063.84
2023-03-17T21:04:30.161Z,101063.81
2023-03-17T21:07:01.567Z,101068.14
2023-03-17T21:09:34.960Z,101062.09
2023-03-17T21:12:06.936Z,101064.73
2023-03-17T21:14:39.027Z,101063.87
2023-03-17T21:17:13.361Z,101057.02
2023-03-17T21:19:41.727Z,101064.77
2023-03-17T21:22:11.937Z,101061.27
2023-03-17T21:24:40.856Z,101053.52
2023-03-17T21:27:11.787Z,101054.41
2023-03-17T21:29:40.786Z,101065.62
2023-03-17T21:32:10.226Z,101057.85
2023-03-17T21:34:39.025Z,101061.30
2023-03-17T21:37:10.532Z,101067.37
2023-03-17T21:39:44.119Z,101062.16
2023-03-17T21:42:13.625Z,101068.14
2023-03-17T21:44:42.987Z,101073.24
2023-03-17T21:47:12.087Z,101080.16
2023-03-17T21:49:41.341Z,101075.09
2023-03-17T21:52:11.921Z,101074.25
2023-03-17T21:54:41.467Z,101079.42
2023-03-17T21:57:13.272Z,101075.09
2023-03-17T21:59:42.056Z,101071.67
2023-03-17T22:02:12.346Z,101074.25
2023-03-17T22:04:43.380Z,101071.61
2023-03-17T22:07:13.153Z,101072.41
2023-03-17T22:09:43.111Z,101077.57
2023-03-17T22:12:14.663Z,101077.55
2023-03-17T22:14:43.533Z,101072.32
2023-03-17T22:17:13.831Z,101069.73
2023-03-17T22:19:43.561Z,101062.89
2023-03-17T22:22:14.189Z,101058.56
2023-03-17T22:24:42.957Z,101049.96
2023-03-17T22:27:12.071Z,101048.23
2023-03-17T22:29:40.933Z,101049.07
2023-03-17T22:32:10.860Z,101052.48
2023-03-17T22:34:39.655Z,101054.20
2023-03-17T22:37:10.182Z,101053.31
2023-03-17T22:39:39.343Z,101056.72
2023-03-17T22:42:09.636Z,101054.14
2023-03-17T22:44:39.166Z,101049.87
2023-03-17T22:47:09.075Z,101051.53
2023-03-17T22:49:37.927Z,101055.77
2023-03-17T22:52:08.731Z,101046.34
2023-03-17T22:54:37.500Z,101050.58
2023-03-17T22:57:07.761Z,101056.56
2023-03-17T22:59:36.553Z,101046.25
2023-03-17T23:02:08.130Z,101044.47
2023-03-17T23:04:37.527Z,101044.41
2023-03-17T23:07:07.559Z,101040.14
2023-03-17T23:09:38.012Z,101044.34
2023-03-17T23:12:10.940Z,101034.86
2023-03-17T23:14:39.724Z,101038.20
2023-03-17T23:17:10.162Z,101040.75
2023-03-17T23:19:39.278Z,101037.25
2023-03-17T23:22:08.798Z,101033.72
2023-03-17T23:24:37.916Z,101033.72
2023-03-17T23:27:07.939Z,101035.44
2023-03-17T23:29:37.283Z,101027.63
2023-03-17T23:32:11.596Z,101030.22
2023-03-17T23:34:40.453Z,101023.37
2023-03-17T23:37:09.787Z,101021.62
2023-03-17T23:39:39.423Z,101018.12
2023-03-17T23:42:10.644Z,101020.66
2023-03-17T23:44:40.557Z,101017.16
2023-03-17T23:47:10.537Z,101017.09
2023-03-17T23:49:39.767Z,101010.16
2023-03-17T23:52:10.703Z,101023.02
2023-03-17T23:54:39.848Z,101016.94
2023-03-17T23:57:10.238Z,101018.59
2023-03-17T23:59:39.297Z,101014.23
